Detall de PIREP

Printer-friendly versionPDF version

[2012/10/05 14:10:00]
Flight IATA:CT2303
Pilot Number:012
Company ICAO:CAT
Aircraft Type:A343/E
PAX:214
Departing Airport: LIBR
Destination Airport: LIEA
Alternate Airport:LIEO
Online: VATSIM
Route:ROBOT UL995 LUXIL UM742 SOR UM603 MOROB
Flight Level:F340
No Slew and time accel
No pause
Crash detect
Detect pilot in Cockpit between each 30 and 45 minutes
14:10 Zero fuel Weight: 340262 Lbs, Fuel Weight: 48668 Lbs
14:10 VATSIM:LIBR 051345Z 32011KT 9999 BKN015 23/17 Q1020 NOSIG
14:10 VATSIM:LIEA 051350Z 03006KT 360V080 CAVOK 28/14 Q1019
14:10 VOICE CATALONIAN
14:10 Parking Brakes off
14:15 Take-off
14:15 Take off Weight: 387719 Lbs
14:15 Wind: 318º @ 011 Knots Heading: 316º
14:15 POS N40º 39´ 54´´ E017º 56´ 18´´
14:15 Flaps:2 at 176 Knots
14:15 Gear Up: 178 Knots
14:16 Flaps:1 at 167 Knots
14:16 Flaps:0 at 191 Knots
14:29 TOC
14:29 Fuel Weight: 41112 Lb
14:30 Wind:346º@015 Knots Heading: 265º Ground Speed: 476 Knots Altitude 34176 ft
14:45 Wind:004º@012 Knots Heading: 288º Ground Speed: 476 Knots Altitude 34192 ft
15:00 Wind:268º@014 Knots Heading: 265º Ground Speed: 464 Knots Altitude 34192 ft
15:05 TOD
15:05 Fuel Weight: 32883 Lb
15:15 Wind:265º@023 Knots Heading: 264º Ground Speed: 297 Knots Altitude 12568 ft
15:18 Flaps:1 at 229 Knots
15:19 Gear Down: 221 Knots
15:20 Flaps:3 at 202 Knots
15:20 Flaps:4 at 150 Knots
15:20 Flaps:5 at 149 Knots
15:23 TouchDown:Rate -354 ft/min Speed: 130 Knots
15:23 VATSIM:LIEA 051450Z 02004KT 340V060 CAVOK 27/14 Q1019
15:23 Land
15:23 Wind:279º@006 Knots
15:23 Heading: 201º
15:23 Flight Duration: 01:08
15:23 Landing Weight: 371233 Lbs
15:23 POS N40º 37´ 57´´ E008º 17´ 27´´
15:24 Parking brakes on
15:24 Block to Block Duration: 01:14
15:24 Final Fuel: 30831 Lbls
15:24 Spent Fuel: 17837 Lbls
15:24 Flight Length: 460 NM
15:24 TOD Land Length: 87 NM

Exportar CSV

Powered by Drupal - Modified by Danger4k